Time;durP1;ratioP1;P1;durP2;ratioP2;P2;SDS_P1;SDS_P2;PMS_P1;PMS_P2;Temp;Humidity;BMP_temperature;BMP_pressure;BME280_temperature;BME280_humidity;BME280_pressure;Samples;Min_cycle;Max_cycle;Signal;HPM_P1;HPM_P2
2022/09/08 00:00:48;;;;;;;25.10;15.43;;;;;;;10.82;58.95;100014.75;1734668;82;21139;-79
2022/09/08 00:03:16;;;;;;;26.40;15.30;;;;;;;10.75;59.31;100008.69;1750611;81;20966;-77
2022/09/08 00:05:51;;;;;;;24.18;14.45;;;;;;;10.70;59.63;100008.60;1742441;81;21042;-79
2022/09/08 00:08:20;;;;;;;20.17;14.33;;;;;;;10.62;60.09;100004.45;1733519;82;20920;-77
2022/09/08 00:10:52;;;;;;;21.65;13.55;;;;;;;10.53;60.37;100000.52;1738657;81;20982;-76
2022/09/08 00:13:18;;;;;;;23.18;12.88;;;;;;;10.52;60.52;100006.13;1729926;82;21134;-75
2022/09/08 00:15:45;;;;;;;19.12;13.20;;;;;;;10.49;61.02;100002.06;1733984;82;21039;-81
2022/09/08 00:18:12;;;;;;;15.58;10.38;;;;;;;10.44;61.30;100004.13;1726568;82;24602;-76
2022/09/08 00:20:39;;;;;;;15.90;9.58;;;;;;;10.46;60.27;100003.88;1748490;81;21024;-73
2022/09/08 00:23:06;;;;;;;12.80;8.78;;;;;;;10.58;58.12;100010.03;1750782;81;21051;-85
2022/09/08 00:25:33;;;;;;;16.55;11.45;;;;;;;10.76;56.37;100007.11;1788045;79;21133;-83
2022/09/08 00:28:00;;;;;;;21.07;11.55;;;;;;;11.00;55.98;100011.81;1782315;80;21534;-83
2022/09/08 00:30:26;;;;;;;17.87;9.95;;;;;;;11.15;55.83;100004.51;1782472;80;21548;-81
2022/09/08 00:32:52;;;;;;;18.07;10.72;;;;;;;11.29;55.02;100012.01;1788537;79;21496;-79
2022/09/08 00:35:19;;;;;;;16.37;10.38;;;;;;;11.45;54.45;100012.23;1783977;79;21520;-78
2022/09/08 00:37:46;;;;;;;19.02;9.80;;;;;;;11.62;54.11;100015.70;1794684;79;20983;-77
2022/09/08 00:40:13;;;;;;;17.98;9.75;;;;;;;11.79;53.86;100008.44;1797335;79;20992;-78
2022/09/08 00:42:41;;;;;;;16.37;10.43;;;;;;;11.98;53.62;100005.71;1800492;79;21032;-73
2022/09/08 00:45:11;;;;;;;15.90;9.38;;;;;;;12.14;53.30;100004.81;1813644;79;21035;-74
2022/09/08 00:47:47;;;;;;;14.63;9.00;;;;;;;12.28;52.33;100001.74;1789604;79;21718;-72
2022/09/08 00:50:21;;;;;;;14.80;8.98;;;;;;;12.41;51.54;99999.98;1781889;80;21172;-72
2022/09/08 00:53:04;;;;;;;10.50;8.30;;;;;;;12.54;51.47;100001.73;1791880;79;20913;-74
2022/09/08 00:55:37;;;;;;;13.60;9.08;;;;;;;12.66;51.35;100005.64;1738490;80;27665;-76
2022/09/08 00:58:04;;;;;;;12.28;7.47;;;;;;;12.76;50.47;99996.83;1744296;80;21114;-76
2022/09/08 01:00:31;;;;;;;10.23;6.20;;;;;;;12.85;49.31;99998.80;1742411;82;21006;-75
2022/09/08 01:02:57;;;;;;;9.73;6.90;;;;;;;12.94;47.45;99993.73;1752795;80;21380;-77
2022/09/08 01:05:29;;;;;;;9.03;6.60;;;;;;;13.05;47.51;99978.69;1772931;80;21562;-74
2022/09/08 01:14:06;;;;;;;12.33;6.20;;;;;;;13.43;43.92;99975.45;1766059;80;21658;-73
2022/09/08 01:16:46;;;;;;;9.55;5.37;;;;;;;13.54;44.50;99976.61;1760296;80;21587;-79
2022/09/08 01:19:25;;;;;;;9.00;6.22;;;;;;;13.59;44.27;99979.06;1742366;82;21050;-83
2022/09/08 01:22:31;;;;;;;6.45;5.67;;;;;;;13.63;44.37;99978.27;1743339;81;21034;-79
2022/09/08 01:25:15;;;;;;;9.90;6.80;;;;;;;13.65;44.62;99969.38;1755922;81;21027;-80
2022/09/08 01:27:41;;;;;;;;;;;;;;;13.63;44.90;99967.46;1745172;81;21566;-82
2022/09/08 01:30:08;;;;;;;9.43;7.65;;;;;;;13.59;45.05;99966.89;1794179;79;21479;-74
2022/09/08 01:32:39;;;;;;;13.03;8.43;;;;;;;13.52;45.02;99971.20;1792498;79;21066;-72
2022/09/08 01:35:06;;;;;;;12.35;8.05;;;;;;;13.46;44.98;99965.48;1812926;79;21027;-72
2022/09/08 01:37:33;;;;;;;16.10;7.78;;;;;;;13.42;44.93;99966.55;1813238;79;21055;-72
2022/09/08 01:39:59;;;;;;;13.08;8.73;;;;;;;13.39;44.45;99967.59;1806322;79;21532;-74
2022/09/08 01:42:26;;;;;;;19.67;9.50;;;;;;;13.37;44.63;99965.17;1814354;79;21848;-73
2022/09/08 01:44:53;;;;;;;15.85;8.40;;;;;;;13.36;44.67;99967.59;1811557;79;21524;-73
2022/09/08 01:47:21;;;;;;;10.90;7.58;;;;;;;13.35;44.74;99967.84;1814795;79;21591;-73
2022/09/08 01:49:47;;;;;;;22.20;10.85;;;;;;;13.33;44.64;99966.75;1811845;79;21089;-70
2022/09/08 01:52:14;;;;;;;16.70;8.08;;;;;;;13.33;44.86;99966.75;1813540;79;21568;-75
2022/09/08 01:54:41;;;;;;;11.35;7.15;;;;;;;13.35;46.14;99966.50;1807388;79;21076;-79
2022/09/08 01:57:08;;;;;;;12.23;7.33;;;;;;;13.37;47.13;99968.41;1809482;79;20979;-73
2022/09/08 01:59:35;;;;;;;11.28;7.62;;;;;;;13.40;47.71;99967.34;1814327;79;20985;-74
2022/09/08 02:02:02;;;;;;;19.87;7.53;;;;;;;13.43;48.45;99967.34;1790510;79;21525;-73
2022/09/08 02:04:29;;;;;;;11.68;8.25;;;;;;;13.45;49.14;99967.38;1812195;79;21580;-74
2022/09/08 02:06:55;;;;;;;13.35;7.40;;;;;;;13.47;49.65;99971.17;1814651;79;21187;-73
2022/09/08 02:09:23;;;;;;;10.98;7.37;;;;;;;13.49;51.69;99970.36;1806361;79;21544;-71
2022/09/08 02:11:51;;;;;;;7.20;5.95;;;;;;;13.53;52.16;99979.56;1813774;79;21016;-70
2022/09/08 02:14:18;;;;;;;10.53;6.97;;;;;;;13.56;52.27;99970.14;1804537;79;21035;-70
2022/09/08 02:16:45;;;;;;;14.43;7.53;;;;;;;13.58;51.74;99977.42;1757430;80;21027;-70
2022/09/08 02:19:12;;;;;;;10.65;8.20;;;;;;;13.58;50.89;99968.78;1780692;80;21192;-72
2022/09/08 02:21:39;;;;;;;11.53;7.58;;;;;;;13.56;51.16;99969.60;1780656;80;20967;-71
2022/09/08 02:24:06;;;;;;;10.40;7.40;;;;;;;13.53;51.16;99970.92;1783046;79;21137;-72
2022/09/08 02:26:34;;;;;;;9.40;7.03;;;;;;;13.50;50.61;99976.86;1776120;80;21564;-71
2022/09/08 02:29:01;;;;;;;10.75;6.87;;;;;;;13.47;50.14;99973.34;1782286;79;21035;-72
2022/09/08 02:31:28;;;;;;;14.33;7.45;;;;;;;13.45;50.43;99969.26;1792417;79;22484;-73
2022/09/08 02:33:56;;;;;;;14.50;8.38;;;;;;;13.41;50.50;99967.62;1796595;79;21014;-73
2022/09/08 02:36:22;;;;;;;16.12;8.28;;;;;;;13.38;50.77;99965.42;1790381;79;21017;-71
2022/09/08 02:38:50;;;;;;;16.65;10.95;;;;;;;13.34;50.74;99965.67;1788967;79;20988;-73
2022/09/08 02:41:17;;;;;;;15.28;7.72;;;;;;;13.33;51.08;99969.45;1813572;79;21012;-72
2022/09/08 02:43:43;;;;;;;13.43;7.97;;;;;;;13.29;50.20;99968.34;1814486;79;21390;-72
2022/09/08 02:46:09;;;;;;;16.40;8.73;;;;;;;13.26;49.76;99972.11;1793529;79;20960;-71
2022/09/08 02:48:37;;;;;;;21.33;11.95;;;;;;;13.23;49.77;99974.81;1787394;79;21520;-72
2022/09/08 02:51:06;;;;;;;14.55;9.18;;;;;;;13.23;49.29;99968.06;1799508;78;21082;-72
2022/09/08 02:53:33;;;;;;;18.15;7.40;;;;;;;13.22;49.03;99969.13;1832306;78;21134;-73
2022/09/08 02:56:01;;;;;;;13.45;8.33;;;;;;;13.21;48.58;99968.03;1791243;79;21077;-73
2022/09/08 02:58:27;;;;;;;10.68;7.75;;;;;;;13.21;48.31;99971.55;1775701;79;20987;-72
2022/09/08 03:00:54;;;;;;;15.00;8.63;;;;;;;13.17;48.13;99968.27;1791005;79;21574;-73
2022/09/08 03:03:22;;;;;;;12.25;7.15;;;;;;;13.14;47.98;99971.51;1782243;80;21015;-73
2022/09/08 03:05:49;;;;;;;12.47;7.83;;;;;;;13.12;47.70;99966.89;1750202;80;21078;-74
2022/09/08 03:08:17;;;;;;;13.53;7.87;;;;;;;13.10;47.77;99973.33;1754866;80;21536;-73
2022/09/08 03:10:44;;;;;;;17.87;8.73;;;;;;;13.08;48.24;99967.39;1756152;80;20994;-74
2022/09/08 03:13:11;;;;;;;17.65;10.58;;;;;;;13.05;48.43;99969.77;1715160;82;20967;-74
2022/09/08 03:15:38;;;;;;;16.67;9.75;;;;;;;13.03;48.86;99971.40;1750623;80;21078;-72
2022/09/08 03:18:05;;;;;;;36.30;21.27;;;;;;;12.99;49.11;99973.00;1764277;79;21170;-74
2022/09/08 03:20:33;;;;;;;34.65;18.40;;;;;;;12.95;49.88;99974.55;1785332;79;21106;-74
2022/09/08 03:23:00;;;;;;;34.67;17.12;;;;;;;12.83;50.33;99976.63;1781810;79;20987;-73
2022/09/08 03:25:27;;;;;;;24.47;14.80;;;;;;;12.76;50.45;99976.58;1769924;79;21038;-73
2022/09/08 03:27:54;;;;;;;23.57;12.55;;;;;;;12.70;51.12;99977.06;1781859;80;21078;-75
2022/09/08 03:30:21;;;;;;;30.12;17.92;;;;;;;12.67;52.45;99981.08;1782790;79;21095;-75
2022/09/08 03:32:49;;;;;;;28.45;13.62;;;;;;;12.64;52.55;99981.60;1795485;79;21236;-73
2022/09/08 03:35:17;;;;;;;33.40;15.60;;;;;;;12.59;53.38;99983.44;1805309;79;20967;-75
2022/09/08 03:37:44;;;;;;;38.33;19.80;;;;;;;12.55;54.07;99983.14;1788651;79;21022;-74
2022/09/08 03:40:13;;;;;;;26.68;14.43;;;;;;;12.48;54.66;99983.86;1800245;79;21039;-75
2022/09/08 03:42:40;;;;;;;20.45;11.28;;;;;;;12.43;57.32;99985.16;1806516;79;21044;-75
2022/09/08 03:45:11;;;;;;;16.32;9.90;;;;;;;12.44;58.62;99984.09;1814257;79;21122;-73
2022/09/08 03:47:38;;;;;;;18.60;10.50;;;;;;;12.47;58.72;99982.80;1792424;79;21016;-70
2022/09/08 03:50:06;;;;;;;17.45;11.55;;;;;;;12.48;59.38;99979.00;1791308;79;21200;-70
2022/09/08 03:52:33;;;;;;;17.52;10.32;;;;;;;12.49;59.66;99979.28;1738625;81;21094;-70
2022/09/08 03:55:00;;;;;;;14.50;9.45;;;;;;;12.49;59.50;99980.63;1758057;79;20985;-70
2022/09/08 03:57:28;;;;;;;22.77;13.45;;;;;;;12.49;59.79;99977.94;1768826;79;21524;-70
2022/09/08 03:59:57;;;;;;;21.60;13.50;;;;;;;12.49;59.33;99979.28;1745422;82;20972;-70
2022/09/08 04:02:23;;;;;;;19.15;10.63;;;;;;;12.45;59.13;99974.94;1758028;80;21039;-70
2022/09/08 04:04:51;;;;;;;15.60;8.30;;;;;;;12.42;59.50;99976.78;1774814;79;20996;-70
2022/09/08 04:07:23;;;;;;;11.80;7.45;;;;;;;12.43;59.81;99977.59;1787887;79;21033;-70
2022/09/08 04:09:50;;;;;;;10.98;7.87;;;;;;;12.46;60.96;99974.41;1778311;79;21191;-71
2022/09/08 04:12:17;;;;;;;20.12;9.48;;;;;;;12.49;61.45;99977.41;1771369;79;20940;-75
2022/09/08 04:14:43;;;;;;;18.05;10.30;;;;;;;12.50;61.20;99970.95;1770480;79;21117;-74
2022/09/08 04:17:10;;;;;;;17.25;10.63;;;;;;;12.48;61.51;99974.42;1750149;81;21009;-76
2022/09/08 04:19:37;;;;;;;13.32;8.75;;;;;;;12.47;61.89;99973.34;1767470;81;21593;-75
2022/09/08 04:22:04;;;;;;;14.33;7.90;;;;;;;12.46;62.17;99976.58;1773844;79;21176;-73
2022/09/08 04:24:31;;;;;;;8.98;7.35;;;;;;;12.47;61.96;99978.74;1768134;79;21047;-75
2022/09/08 04:26:58;;;;;;;11.53;6.75;;;;;;;12.45;61.91;99976.30;1751554;80;21035;-76
2022/09/08 04:29:26;;;;;;;12.20;8.05;;;;;;;12.47;61.41;99981.44;1768208;79;20960;-74
2022/09/08 04:31:52;;;;;;;14.05;7.50;;;;;;;12.49;61.25;99976.59;1770121;79;21047;-74
2022/09/08 04:34:19;;;;;;;13.80;7.25;;;;;;;12.51;61.46;99976.63;1771080;79;21121;-75
2022/09/08 04:36:45;;;;;;;13.58;8.18;;;;;;;12.54;60.84;99983.38;1780043;79;21069;-75
2022/09/08 04:39:12;;;;;;;10.23;8.38;;;;;;;12.57;60.47;99984.21;1784400;79;21004;-75
2022/09/08 04:41:38;;;;;;;11.18;7.15;;;;;;;12.62;59.91;99985.61;1774415;79;21033;-73
2022/09/08 04:44:06;;;;;;;11.60;7.70;;;;;;;12.64;60.24;99986.17;1783056;80;21083;-76
2022/09/08 04:46:33;;;;;;;16.45;8.98;;;;;;;12.68;59.66;99988.64;1798526;79;21149;-74
2022/09/08 04:49:00;;;;;;;15.32;8.53;;;;;;;12.72;59.15;99986.23;1798473;79;20989;-74
2022/09/08 04:51:28;;;;;;;9.40;6.03;;;;;;;12.75;58.01;99981.70;1757710;81;21047;-74
2022/09/08 04:53:57;;;;;;;18.35;10.30;;;;;;;12.80;57.10;99977.69;1783056;79;21416;-76
2022/09/08 04:56:24;;;;;;;15.38;8.60;;;;;;;12.85;57.40;99983.13;1767907;80;20998;-74
2022/09/08 04:58:51;;;;;;;23.05;10.03;;;;;;;12.87;57.18;99980.97;1765898;79;21609;-75
2022/09/08 05:01:23;;;;;;;11.45;8.30;;;;;;;12.91;57.17;99985.59;1767943;79;20988;-77
2022/09/08 05:03:53;;;;;;;11.40;7.53;;;;;;;12.96;57.13;99980.23;1755699;81;21000;-73
2022/09/08 05:06:21;;;;;;;12.40;8.70;;;;;;;13.03;56.83;99975.98;1806869;79;21107;-71
2022/09/08 05:08:51;;;;;;;15.93;9.38;;;;;;;13.11;56.74;99976.88;1765344;80;21022;-73
2022/09/08 05:11:19;;;;;;;15.85;8.70;;;;;;;13.18;55.82;99979.36;1792350;80;22445;-73
2022/09/08 05:13:46;;;;;;;17.17;9.28;;;;;;;13.25;55.56;99979.41;1786066;79;20925;-73
2022/09/08 05:16:17;;;;;;;13.62;9.30;;;;;;;13.33;54.95;99981.61;1731088;83;20948;-72
2022/09/08 05:18:49;;;;;;;19.05;9.83;;;;;;;13.40;54.28;99975.45;1776408;80;21596;-72
2022/09/08 05:21:16;;;;;;;18.17;8.18;;;;;;;13.49;54.02;99979.81;1742627;80;21051;-77
2022/09/08 05:23:44;;;;;;;13.05;7.87;;;;;;;13.56;53.54;99987.16;1784044;79;21308;-75
2022/09/08 05:26:14;;;;;;;19.40;9.50;;;;;;;13.63;53.15;99983.67;1729234;83;21101;-75
2022/09/08 05:28:43;;;;;;;23.50;9.73;;;;;;;13.70;52.96;99985.62;1777028;79;21051;-76
2022/09/08 05:31:17;;;;;;;15.40;8.45;;;;;;;13.77;52.96;99990.77;1734331;81;21627;-75
2022/09/08 05:33:43;;;;;;;11.73;7.35;;;;;;;13.83;52.30;99989.19;1784494;79;21338;-72
2022/09/08 05:36:16;;;;;;;14.85;9.28;;;;;;;13.90;52.14;99999.77;1727674;83;21169;-72
2022/09/08 05:38:43;;;;;;;9.65;7.67;;;;;;;13.96;52.12;99990.58;1786543;79;20996;-71
2022/09/08 05:41:10;;;;;;;18.65;9.35;;;;;;;14.03;52.13;99992.52;1731914;80;21071;-74
2022/09/08 05:43:38;;;;;;;15.60;8.48;;;;;;;14.08;52.34;99984.42;1803753;79;21494;-73
2022/09/08 05:46:04;;;;;;;12.25;7.97;;;;;;;14.16;52.18;99991.19;1801542;79;21082;-76
2022/09/08 05:48:31;;;;;;;10.05;6.28;;;;;;;14.21;51.53;99992.03;1749260;80;21138;-74
2022/09/08 05:51:02;;;;;;;11.95;7.30;;;;;;;14.27;50.22;99996.38;1784961;80;21590;-75
2022/09/08 05:53:31;;;;;;;12.33;6.12;;;;;;;14.35;50.25;99989.62;1804269;79;21604;-75
2022/09/08 05:56:03;;;;;;;8.28;6.05;;;;;;;14.42;48.98;100002.41;1758690;81;21039;-73
2022/09/08 05:58:30;;;;;;;13.38;6.15;;;;;;;14.47;48.94;99992.95;1807017;79;21603;-74
2022/09/08 06:01:01;;;;;;;7.92;5.70;;;;;;;14.52;48.42;99994.31;1759364;81;21496;-74
2022/09/08 06:03:27;;;;;;;11.53;6.03;;;;;;;14.55;48.01;99994.30;1783857;79;21450;-73
2022/09/08 06:05:55;;;;;;;11.63;5.25;;;;;;;14.56;47.84;99998.10;1735617;81;21027;-74
2022/09/08 06:08:22;;;;;;;6.47;4.87;;;;;;;14.60;47.78;100000.54;1759439;81;21061;-72
2022/09/08 06:10:51;;;;;;;10.53;5.50;;;;;;;14.63;47.81;100000.53;1759542;80;21060;-73
2022/09/08 06:13:21;;;;;;;5.67;4.72;;;;;;;14.65;48.06;99999.20;1782123;80;20989;-74
2022/09/08 06:15:49;;;;;;;7.35;5.75;;;;;;;14.70;47.82;99997.84;1791766;79;21003;-77
2022/09/08 06:18:18;;;;;;;10.45;5.60;;;;;;;14.73;47.73;100014.08;1752548;81;21061;-75
2022/09/08 06:20:45;;;;;;;17.52;6.67;;;;;;;14.77;47.36;100011.14;1790024;80;21044;-78
2022/09/08 06:23:12;;;;;;;8.23;6.65;;;;;;;14.80;47.46;100007.88;1804483;79;21018;-74
2022/09/08 06:25:42;;;;;;;10.85;6.33;;;;;;;14.79;46.38;100009.77;1737781;81;21160;-74
2022/09/08 06:28:36;;;;;;;10.15;7.33;;;;;;;14.77;45.91;100016.55;1776136;80;21001;-76
2022/09/08 06:31:09;;;;;;;7.53;6.22;;;;;;;14.77;46.30;100025.46;1738871;81;20995;-74
2022/09/08 06:33:40;;;;;;;9.60;7.00;;;;;;;14.82;45.47;100032.77;1729324;81;21126;-74
2022/09/08 06:36:25;;;;;;;12.40;8.33;;;;;;;14.83;45.17;100022.22;1742101;81;21133;-75
2022/09/08 06:38:56;;;;;;;8.93;7.40;;;;;;;14.83;45.05;100016.80;1740952;82;21154;-75
2022/09/08 06:41:30;;;;;;;10.18;7.40;;;;;;;14.86;45.45;100022.23;1741241;81;20947;-74
2022/09/08 06:44:03;;;;;;;11.18;8.20;;;;;;;14.91;45.71;100032.54;1745896;81;21051;-74
2022/09/08 06:46:34;;;;;;;13.13;8.73;;;;;;;14.97;45.86;100029.27;1777425;80;20967;-75
2022/09/08 06:49:00;;;;;;;10.13;7.78;;;;;;;15.04;45.90;100032.53;1775061;80;21492;-74
2022/09/08 06:51:49;;;;;;;11.55;8.13;;;;;;;15.09;46.02;100031.18;1751746;80;21172;-77
2022/09/08 06:54:40;;;;;;;11.85;8.53;;;;;;;15.14;46.11;100027.94;1744675;80;21305;-72
2022/09/08 06:57:29;;;;;;;12.43;8.63;;;;;;;15.21;46.28;100039.30;1748482;80;21109;-72
2022/09/08 07:00:21;;;;;;;11.03;7.67;;;;;;;15.26;46.51;100035.23;1750037;80;21539;-72
2022/09/08 07:03:26;;;;;;;10.70;7.65;;;;;;;15.33;46.17;100040.39;1745330;80;21087;-72
2022/09/08 07:06:09;;;;;;;8.35;7.55;;;;;;;15.39;46.41;100045.27;1747806;80;21179;-73
2022/09/08 07:08:50;;;;;;;8.25;6.33;;;;;;;15.43;45.97;100043.09;1742271;82;21022;-73
2022/09/08 07:11:55;;;;;;;9.25;6.55;;;;;;;15.46;45.92;100046.60;1751804;80;21544;-73
2022/09/08 07:14:48;;;;;;;12.98;7.20;;;;;;;15.44;46.16;100045.27;1751855;80;21061;-73
2022/09/08 07:17:29;;;;;;;10.00;6.62;;;;;;;15.47;46.41;100042.81;1748507;80;21046;-73
2022/09/08 07:19:56;;;;;;;13.53;7.08;;;;;;;15.52;46.43;100042.84;1750384;80;21880;-76
2022/09/08 07:22:59;;;;;;;8.18;5.60;;;;;;;15.62;46.40;100046.08;1754200;80;21045;-73
2022/09/08 07:25:37;;;;;;;8.15;6.37;;;;;;;15.70;45.90;100050.92;1772825;80;21577;-74
2022/09/08 07:28:12;;;;;;;10.98;6.67;;;;;;;15.81;46.03;100044.95;1766989;80;21090;-75
2022/09/08 07:30:39;;;;;;;9.58;5.70;;;;;;;15.89;45.85;100043.02;1742682;82;21101;-74
2022/09/08 07:33:17;;;;;;;14.90;6.97;;;;;;;15.98;45.12;100047.59;1761451;80;21242;-78
2022/09/08 07:36:13;;;;;;;14.00;6.55;;;;;;;16.07;44.93;100049.19;1773114;80;21053;-75
2022/09/08 07:38:57;;;;;;;8.70;6.33;;;;;;;16.14;44.68;100047.00;1765911;80;21591;-72
2022/09/08 07:41:36;;;;;;;10.93;5.75;;;;;;;16.23;44.36;100054.02;1753596;80;21034;-71
2022/09/08 07:44:11;;;;;;;9.65;5.97;;;;;;;16.30;43.83;100045.86;1765956;80;20944;-73
2022/09/08 07:47:24;;;;;;;8.90;6.53;;;;;;;16.40;43.56;100049.85;1743015;80;21095;-74
2022/09/08 07:49:57;;;;;;;7.90;5.83;;;;;;;16.48;43.48;100050.64;1783867;80;21593;-71
2022/09/08 07:52:47;;;;;;;11.35;5.95;;;;;;;16.59;43.23;100048.72;1751893;80;21090;-73
2022/09/08 07:55:41;;;;;;;8.83;4.95;;;;;;;16.66;43.36;100046.49;1772585;80;21086;-78
2022/09/08 07:58:19;;;;;;;9.08;6.58;;;;;;;16.77;42.78;100044.53;1762149;80;20983;-76
2022/09/08 08:01:16;;;;;;;7.58;5.15;;;;;;;16.87;42.39;100048.54;1755209;80;21213;-74
2022/09/08 08:04:00;;;;;;;7.58;4.30;;;;;;;16.95;42.25;100047.38;1770157;80;21568;-73
2022/09/08 08:06:46;;;;;;;4.35;3.50;;;;;;;17.07;41.85;100048.39;1767040;80;20994;-76
2022/09/08 08:09:43;;;;;;;6.05;3.12;;;;;;;17.18;40.00;100045.02;1762307;80;21063;-73
2022/09/08 08:12:21;;;;;;;9.13;3.40;;;;;;;17.26;39.42;100042.53;1733098;82;21039;-75
2022/09/08 08:15:02;;;;;;;5.03;3.83;;;;;;;17.32;39.45;100040.00;1743417;80;21816;-76
2022/09/08 08:17:44;;;;;;;7.50;4.12;;;;;;;17.40;39.64;100046.75;1764279;80;21000;-76
2022/09/08 08:20:37;;;;;;;5.85;3.30;;;;;;;17.47;39.87;100034.98;1759088;80;21038;-76
2022/09/08 08:23:27;;;;;;;6.80;3.58;;;;;;;17.55;39.02;100033.02;1772724;80;21050;-77
2022/09/08 08:26:19;;;;;;;5.45;3.92;;;;;;;17.62;38.33;100029.42;1763410;79;21090;-75
2022/09/08 08:28:48;;;;;;;5.05;3.70;;;;;;;17.70;38.27;100030.14;1764480;80;21539;-75
2022/09/08 08:31:35;;;;;;;11.28;4.83;;;;;;;17.77;38.07;100032.53;1768420;80;21151;-73
2022/09/08 08:34:09;;;;;;;4.60;3.80;;;;;;;17.82;37.78;100035.20;1789948;80;22252;-73
2022/09/08 08:36:41;;;;;;;4.00;3.37;;;;;;;17.90;37.77;100036.46;1742423;81;21721;-80
2022/09/08 08:39:17;;;;;;;7.15;3.62;;;;;;;17.94;36.68;100028.78;1763873;80;20936;-71
2022/09/08 08:41:49;;;;;;;5.75;4.25;;;;;;;18.02;35.86;100032.25;1711352;83;21120;-72
2022/09/08 08:44:38;;;;;;;10.05;4.05;;;;;;;18.11;35.00;100025.61;1755536;80;20991;-72
2022/09/08 08:47:20;;;;;;;7.65;5.50;;;;;;;18.20;34.85;100027.39;1711850;82;21044;-77
2022/09/08 08:50:38;;;;;;;23.00;10.40;;;;;;;18.30;35.09;100024.54;1746572;80;21034;-77
2022/09/08 08:53:23;;;;;;;26.48;14.45;;;;;;;18.40;35.18;100029.59;1765797;80;21030;-74
2022/09/08 08:56:21;;;;;;;29.60;16.20;;;;;;;18.46;35.45;100029.78;1718356;81;21288;-74
2022/09/08 08:59:30;;;;;;;28.35;18.07;;;;;;;18.53;35.28;100028.34;1706831;82;20921;-74
2022/09/08 09:02:19;;;;;;;22.97;16.40;;;;;;;18.61;35.13;100023.58;1682165;82;21015;-71
2022/09/08 09:05:23;;;;;;;27.37;16.87;;;;;;;18.68;34.96;100019.95;1722391;82;21576;-75
2022/09/08 09:08:29;;;;;;;32.67;23.15;;;;;;;18.72;35.08;100031.06;1719036;82;21065;-72
2022/09/08 09:11:27;;;;;;;42.35;26.15;;;;;;;18.77;35.20;100035.62;1718445;83;21624;-71
2022/09/08 09:14:24;;;;;;;39.53;28.10;;;;;;;18.85;35.53;100022.72;1705447;82;21816;-71
2022/09/08 09:17:18;;;;;;;41.05;30.27;;;;;;;18.89;35.25;100025.91;1686729;82;21037;-73
2022/09/08 09:20:03;;;;;;;48.78;32.15;;;;;;;18.94;35.47;100031.28;1761539;81;21067;-73
2022/09/08 09:22:55;;;;;;;47.27;28.73;;;;;;;19.03;35.57;100018.59;1762659;80;21573;-71
2022/09/08 09:25:37;;;;;;;43.00;28.47;;;;;;;19.14;35.11;100015.94;1745537;81;21266;-72
2022/09/08 09:28:52;;;;;;;47.25;32.63;;;;;;;19.24;34.95;100016.31;1714140;82;21022;-72
2022/09/08 09:32:04;;;;;;;42.78;29.00;;;;;;;19.25;34.30;100019.86;1760052;81;21501;-72
2022/09/08 09:35:00;;;;;;;41.70;27.58;;;;;;;19.29;34.27;100017.59;1711530;81;21106;-72
2022/09/08 09:38:06;;;;;;;40.60;22.35;;;;;;;19.38;33.92;100020.44;1719464;82;21587;-72
2022/09/08 09:41:03;;;;;;;27.93;20.37;;;;;;;19.46;33.44;100015.70;1701061;81;21067;-72
2022/09/08 09:44:12;;;;;;;31.37;19.70;;;;;;;19.50;31.87;100019.45;1752272;81;21093;-74
2022/09/08 09:47:24;;;;;;;30.92;21.27;;;;;;;19.41;32.60;100015.77;1726255;82;21122;-70
2022/09/08 09:50:36;;;;;;;21.65;15.55;;;;;;;19.48;32.45;100018.92;1718673;82;21030;-69
2022/09/08 09:53:20;;;;;;;21.55;14.50;;;;;;;19.59;32.01;100024.47;1746269;81;21512;-70
2022/09/08 09:56:19;;;;;;;19.70;14.78;;;;;;;19.66;31.58;100029.53;1739616;81;21250;-81
2022/09/08 09:59:08;;;;;;;21.42;11.78;;;;;;;19.71;31.20;100033.53;1739769;81;21062;-74
2022/09/08 10:02:10;;;;;;;16.25;9.73;;;;;;;19.71;30.60;100039.78;1735817;81;21047;-77
2022/09/08 10:05:32;;;;;;;19.00;9.38;;;;;;;19.76;30.52;100034.81;1752831;81;21042;-79
2022/09/08 10:08:27;;;;;;;19.02;10.68;;;;;;;19.80;30.53;100040.72;1704922;81;21102;-77
2022/09/08 10:11:11;;;;;;;18.87;10.50;;;;;;;19.80;30.88;100039.91;1735877;81;21579;-75
2022/09/08 10:14:32;;;;;;;16.77;11.25;;;;;;;19.84;31.19;100038.19;1752916;81;21071;-78
2022/09/08 10:17:46;;;;;;;21.12;14.47;;;;;;;19.95;31.27;100039.04;1788372;79;21024;-75
2022/09/08 10:20:46;;;;;;;19.07;13.08;;;;;;;20.01;31.31;100044.66;1756780;80;21103;-76
2022/09/08 10:23:41;;;;;;;25.45;14.30;;;;;;;20.11;31.26;100045.02;1782246;80;21693;-75
2022/09/08 10:26:58;;;;;;;16.80;13.18;;;;;;;20.20;31.25;100045.10;1781987;80;21211;-76
2022/09/08 10:29:49;;;;;;;19.23;12.20;;;;;;;20.25;31.34;100038.17;1691004;84;20931;-77
2022/09/08 10:32:47;;;;;;;35.28;22.85;;;;;;;20.28;31.25;100043.05;1782377;80;21088;-72
2022/09/08 10:35:39;;;;;;;26.57;13.78;;;;;;;20.33;31.00;100036.95;1805960;79;21016;-76
2022/09/08 10:38:40;;;;;;;17.48;13.68;;;;;;;20.39;31.23;100041.17;1758429;80;21087;-76
2022/09/08 10:41:59;;;;;;;20.90;12.55;;;;;;;20.49;31.25;100040.69;1766027;81;22139;-75
2022/09/08 10:44:42;;;;;;;18.05;11.78;;;;;;;20.55;31.20;100043.02;1765604;81;21208;-75
2022/09/08 10:47:55;;;;;;;18.80;11.05;;;;;;;20.70;31.19;100039.13;1765993;81;21043;-73
2022/09/08 10:50:25;;;;;;;14.47;10.82;;;;;;;20.81;31.11;100043.27;1776315;79;21636;-75
2022/09/08 10:53:22;;;;;;;20.62;11.78;;;;;;;20.93;30.78;100041.33;1812340;79;21071;-76
2022/09/08 10:56:08;;;;;;;20.23;11.12;;;;;;;21.02;30.61;100043.57;1808931;79;21446;-75
2022/09/08 10:59:09;;;;;;;19.95;10.38;;;;;;;21.07;30.57;100031.95;1759168;80;21106;-74
2022/09/08 11:02:05;;;;;;;17.10;11.55;;;;;;;21.14;30.64;100041.13;1785369;80;21034;-75
2022/09/08 11:05:24;;;;;;;17.92;11.15;;;;;;;21.29;30.56;100040.76;1785576;80;21034;-76
2022/09/08 11:08:10;;;;;;;20.55;12.47;;;;;;;21.38;30.49;100032.04;1785565;80;21022;-73
2022/09/08 11:11:08;;;;;;;17.02;10.88;;;;;;;21.44;30.35;100039.56;1785255;80;21919;-75
2022/09/08 11:14:04;;;;;;;16.65;11.88;;;;;;;21.46;30.37;100027.72;1809880;79;20956;-74
2022/09/08 11:16:52;;;;;;;16.95;11.10;;;;;;;21.33;30.21;100026.70;1812014;79;21552;-75
2022/09/08 11:19:46;;;;;;;22.87;13.20;;;;;;;21.34;30.14;100026.14;1800883;79;21053;-74
2022/09/08 11:22:37;;;;;;;18.27;13.23;;;;;;;21.39;30.51;100028.16;1796369;79;21071;-75
2022/09/08 11:25:53;;;;;;;18.27;11.10;;;;;;;21.42;30.44;100033.02;1811822;79;21583;-75
2022/09/08 11:28:43;;;;;;;15.20;8.88;;;;;;;21.56;30.02;100021.43;1811893;79;21521;-73
2022/09/08 11:31:39;;;;;;;19.67;9.93;;;;;;;21.75;29.41;100022.00;1811850;79;20929;-74
2022/09/08 11:34:47;;;;;;;16.20;9.33;;;;;;;21.83;29.22;100014.13;1768775;79;21051;-74
2022/09/08 11:37:37;;;;;;;16.67;8.33;;;;;;;21.92;29.21;100025.95;1812010;79;21007;-72
2022/09/08 11:40:47;;;;;;;23.87;13.05;;;;;;;22.03;28.91;100016.32;1809171;79;21170;-71
2022/09/08 11:43:48;;;;;;;18.02;13.05;;;;;;;21.95;29.34;100018.48;1811984;79;20972;-73
2022/09/08 11:46:57;;;;;;;18.77;11.63;;;;;;;21.71;29.74;100023.76;1812023;79;20999;-73
2022/09/08 11:50:01;;;;;;;16.65;12.03;;;;;;;21.61;30.06;100026.77;1701641;83;21477;-73
2022/09/08 11:53:03;;;;;;;19.25;12.43;;;;;;;21.60;30.10;100021.59;1711942;82;21139;-73
2022/09/08 11:56:11;;;;;;;19.70;11.38;;;;;;;21.68;29.80;100025.73;1798121;79;21212;-73
2022/09/08 11:59:07;;;;;;;15.98;11.60;;;;;;;21.65;29.65;100030.48;1783432;80;21027;-72
2022/09/08 12:01:57;;;;;;;17.57;10.48;;;;;;;21.68;29.58;100023.00;1767024;80;21520;-74
2022/09/08 12:04:44;;;;;;;18.85;10.53;;;;;;;21.79;29.51;100020.80;1718477;83;21742;-74
2022/09/08 12:07:34;;;;;;;14.18;9.30;;;;;;;21.76;29.38;100028.28;1722849;83;21020;-74
2022/09/08 12:10:24;;;;;;;14.33;8.80;;;;;;;21.74;29.44;100009.42;1766888;81;39037;-75
2022/09/08 12:13:09;;;;;;;15.85;9.08;;;;;;;21.76;29.51;100026.92;1694432;83;21034;-73
2022/09/08 12:15:50;;;;;;;15.03;8.23;;;;;;;21.77;29.70;100004.45;1791147;79;21529;-72
2022/09/08 12:18:50;;;;;;;18.30;9.70;;;;;;;21.69;29.64;100012.86;1721998;83;21531;-74